createdAt,value
2016-11-18T00:00:57.107Z,40.57
2016-11-18T00:02:06.113Z,40.66
2016-11-18T00:03:15.441Z,40.57
2016-11-18T00:04:24.792Z,40.57
2016-11-18T00:05:33.784Z,40.57
2016-11-18T00:06:43.106Z,40.57
2016-11-18T00:07:52.709Z,40.57
2016-11-18T00:09:02.017Z,40.57
2016-11-18T00:10:11.041Z,40.57
2016-11-18T00:11:20.358Z,40.57
2016-11-18T00:12:29.663Z,40.57
2016-11-18T00:13:38.663Z,40.66
2016-11-18T00:14:47.673Z,40.57
2016-11-18T00:15:56.671Z,40.47
2016-11-18T00:17:05.368Z,40.57
2016-11-18T00:18:14.375Z,40.57
2016-11-18T00:19:23.098Z,40.57
2016-11-18T00:20:31.820Z,40.57
2016-11-18T00:21:40.846Z,40.57
2016-11-18T00:22:50.149Z,40.57
2016-11-18T00:23:59.448Z,40.66
2016-11-18T00:25:08.770Z,40.57
2016-11-18T00:26:18.064Z,40.57
2016-11-18T00:27:27.363Z,40.57
2016-11-18T00:28:36.664Z,40.57
2016-11-18T00:29:46.004Z,40.57
2016-11-18T00:30:55.002Z,40.57
2016-11-18T00:32:03.706Z,40.57
2016-11-18T00:33:13.049Z,40.66
2016-11-18T00:34:22.032Z,40.57
2016-11-18T00:35:30.737Z,40.57
2016-11-18T00:36:39.744Z,40.66
2016-11-18T00:37:48.750Z,40.57
2016-11-18T00:38:57.457Z,40.66
2016-11-18T00:40:06.487Z,40.57
2016-11-18T00:41:15.189Z,40.57
2016-11-18T00:42:24.517Z,40.57
2016-11-18T00:43:33.229Z,40.57
2016-11-18T00:44:41.937Z,40.57
2016-11-18T00:45:50.620Z,40.57
2016-11-18T00:47:00.238Z,40.57
2016-11-18T00:48:09.224Z,40.66
2016-11-18T00:49:18.222Z,40.66
2016-11-18T00:50:26.921Z,40.47
2016-11-18T00:51:36.272Z,40.57
2016-11-18T00:52:45.306Z,40.57
2016-11-18T00:53:53.984Z,40.47
2016-11-18T00:55:03.899Z,40.47
2016-11-18T00:56:12.949Z,40.57
2016-11-18T00:57:21.657Z,40.57
2016-11-18T00:58:30.667Z,40.66
2016-11-18T00:59:39.675Z,40.57
2016-11-18T01:00:48.688Z,40.66
2016-11-18T01:01:57.732Z,40.66
2016-11-18T01:03:07.352Z,40.57
2016-11-18T01:04:16.357Z,40.57
2016-11-18T01:05:25.084Z,40.66
2016-11-18T01:06:34.697Z,40.66
2016-11-18T01:07:43.756Z,40.66
2016-11-18T01:08:52.512Z,40.57
2016-11-18T01:10:01.206Z,40.57
2016-11-18T01:11:09.888Z,40.57
2016-11-18T01:12:18.903Z,40.57
2016-11-18T01:13:27.623Z,40.57
2016-11-18T01:14:36.310Z,40.57
2016-11-18T01:15:45.311Z,40.57
2016-11-18T01:16:54.012Z,40.66
2016-11-18T01:18:03.029Z,40.57
2016-11-18T01:19:12.629Z,40.47
2016-11-18T01:20:21.625Z,40.66
2016-11-18T01:21:30.957Z,40.57
2016-11-18T01:22:39.961Z,40.57
2016-11-18T01:23:49.335Z,40.57
2016-11-18T01:24:58.346Z,40.57
2016-11-18T01:26:07.084Z,40.66
2016-11-18T01:27:16.097Z,40.55
2016-11-18T01:28:25.101Z,40.57
2016-11-18T01:29:34.399Z,40.57
2016-11-18T01:30:43.210Z,40.57
2016-11-18T01:31:52.623Z,40.66
2016-11-18T01:33:01.620Z,40.57
2016-11-18T01:34:10.763Z,40.57
2016-11-18T01:35:20.669Z,40.66
2016-11-18T01:36:30.288Z,40.66
2016-11-18T01:37:39.016Z,40.47
2016-11-18T01:38:47.710Z,40.66
2016-11-18T01:39:56.704Z,40.66
2016-11-18T01:41:05.411Z,40.66
2016-11-18T01:42:14.396Z,40.66
2016-11-18T01:43:23.714Z,40.66
2016-11-18T01:44:32.395Z,40.57
2016-11-18T01:45:41.388Z,40.66
2016-11-18T01:46:50.117Z,40.47
2016-11-18T01:47:59.108Z,40.66
2016-11-18T01:49:08.404Z,40.66
2016-11-18T01:50:17.402Z,40.66
2016-11-18T01:51:26.122Z,40.66
2016-11-18T01:52:35.428Z,40.57
2016-11-18T01:53:44.742Z,40.66
2016-11-18T01:54:54.049Z,40.66
2016-11-18T01:56:03.381Z,40.66
2016-11-18T01:57:12.088Z,40.66
2016-11-18T01:58:20.827Z,40.57
2016-11-18T01:59:29.832Z,40.66
2016-11-18T02:00:38.833Z,40.57
2016-11-18T02:01:48.192Z,40.66
2016-11-18T02:02:57.203Z,40.66
2016-11-18T02:04:06.820Z,40.55
2016-11-18T02:05:15.816Z,40.66
2016-11-18T02:06:24.558Z,40.55
2016-11-18T02:07:33.568Z,40.55
2016-11-18T02:08:42.584Z,40.64
2016-11-18T02:09:51.938Z,40.74
2016-11-18T02:11:00.955Z,40.57
2016-11-18T02:12:09.639Z,40.66
2016-11-18T02:13:18.757Z,40.57
2016-11-18T02:14:27.762Z,40.76
2016-11-18T02:15:36.468Z,40.57
2016-11-18T02:16:45.779Z,40.47
2016-11-18T02:17:55.126Z,40.76
2016-11-18T02:19:04.425Z,40.55
2016-11-18T02:20:13.766Z,40.55
2016-11-18T02:21:23.121Z,40.57
2016-11-18T02:22:32.153Z,40.57
2016-11-18T02:23:41.154Z,40.55
2016-11-18T02:24:49.852Z,40.55
2016-11-18T02:25:59.266Z,40.45
2016-11-18T02:27:08.622Z,40.57
2016-11-18T02:28:18.003Z,40.55
2016-11-18T02:29:27.006Z,40.45
2016-11-18T02:30:35.726Z,40.57
2016-11-18T02:31:44.460Z,40.47
2016-11-18T02:32:53.846Z,40.57
2016-11-18T02:34:03.173Z,40.55
2016-11-18T02:35:12.206Z,40.55
2016-11-18T02:36:20.946Z,40.57
2016-11-18T02:37:30.265Z,40.45
2016-11-18T02:38:39.588Z,40.57
2016-11-18T02:39:49.229Z,40.45
2016-11-18T02:40:58.307Z,40.45
2016-11-18T02:42:07.352Z,40.57
2016-11-18T02:43:16.380Z,40.45
2016-11-18T02:44:25.426Z,40.57
2016-11-18T02:45:34.424Z,40.45
2016-11-18T02:46:43.154Z,40.55
2016-11-18T02:47:52.504Z,40.55
2016-11-18T02:49:01.556Z,40.64
2016-11-18T02:50:10.293Z,40.47
2016-11-18T02:51:18.989Z,40.55
2016-11-18T02:52:28.077Z,40.57
2016-11-18T02:53:37.086Z,40.45
2016-11-18T02:54:46.209Z,40.45
2016-11-18T02:55:54.910Z,40.57
2016-11-18T02:57:03.986Z,40.47
2016-11-18T02:58:12.722Z,40.55
2016-11-18T02:59:21.770Z,40.47
2016-11-18T03:00:31.807Z,40.47
2016-11-18T03:01:40.553Z,40.47
2016-11-18T03:02:49.231Z,40.57
2016-11-18T03:03:58.576Z,40.47
2016-11-18T03:05:07.271Z,40.55
2016-11-18T03:06:16.339Z,40.47
2016-11-18T03:07:25.059Z,40.47
2016-11-18T03:08:34.682Z,40.47
2016-11-18T03:09:44.322Z,40.55
2016-11-18T03:10:53.332Z,40.45
2016-11-18T03:12:02.985Z,40.57
2016-11-18T03:13:11.697Z,40.55
2016-11-18T03:14:21.325Z,40.47
2016-11-18T03:15:30.028Z,40.45
2016-11-18T03:16:39.069Z,40.45
2016-11-18T03:17:48.102Z,40.45
2016-11-18T03:18:57.120Z,40.45
2016-11-18T03:20:06.426Z,40.36
2016-11-18T03:21:15.423Z,40.47
2016-11-18T03:22:24.421Z,40.45
2016-11-18T03:23:33.415Z,40.45
2016-11-18T03:24:42.150Z,40.45
2016-11-18T03:25:51.141Z,40.36
2016-11-18T03:26:59.853Z,40.45
2016-11-18T03:28:09.222Z,40.45
2016-11-18T03:29:18.215Z,40.45
2016-11-18T03:30:27.270Z,40.45
2016-11-18T03:31:35.989Z,40.45
2016-11-18T03:32:44.985Z,40.45
2016-11-18T03:33:53.678Z,40.55
2016-11-18T03:35:02.978Z,40.45
2016-11-18T03:36:11.999Z,40.64
2016-11-18T03:37:21.327Z,40.45
2016-11-18T03:38:30.061Z,40.45
2016-11-18T03:39:38.749Z,40.45
2016-11-18T03:40:47.762Z,40.55
2016-11-18T03:41:56.790Z,40.45
2016-11-18T03:43:06.112Z,40.45
2016-11-18T03:44:15.120Z,40.45
2016-11-18T03:45:23.808Z,40.55
2016-11-18T03:46:32.828Z,40.36
2016-11-18T03:47:41.880Z,40.45
2016-11-18T03:48:50.973Z,40.74
2016-11-18T03:50:00.292Z,40.74
2016-11-18T03:51:09.322Z,40.74
2016-11-18T03:52:18.321Z,40.64
2016-11-18T03:53:27.338Z,40.74
2016-11-18T03:54:36.393Z,40.45
2016-11-18T03:55:45.765Z,40.64
2016-11-18T03:56:54.465Z,40.74
2016-11-18T03:58:04.116Z,40.74
2016-11-18T03:59:13.139Z,40.64
2016-11-18T04:00:22.441Z,40.74
2016-11-18T04:01:31.137Z,40.64
2016-11-18T04:02:39.855Z,40.45
2016-11-18T04:03:48.980Z,40.64
2016-11-18T04:04:58.272Z,40.74
2016-11-18T04:06:07.263Z,40.74
2016-11-18T04:07:16.271Z,40.64
2016-11-18T04:08:25.265Z,40.64
2016-11-18T04:09:34.285Z,40.74
2016-11-18T04:10:43.937Z,40.64
2016-11-18T04:11:53.015Z,40.64
2016-11-18T04:13:02.011Z,40.74
2016-11-18T04:14:11.034Z,40.64
2016-11-18T04:15:19.725Z,40.74
2016-11-18T04:16:28.717Z,40.64
2016-11-18T04:17:37.776Z,40.74
2016-11-18T04:18:46.864Z,40.64
2016-11-18T04:19:56.220Z,40.64
2016-11-18T04:21:04.959Z,40.64
2016-11-18T04:22:14.274Z,40.55
2016-11-18T04:23:22.979Z,40.64
2016-11-18T04:24:31.983Z,40.26
2016-11-18T04:25:41.333Z,40.26
2016-11-18T04:26:50.684Z,40.74
2016-11-18T04:27:59.752Z,40.64
2016-11-18T04:29:08.782Z,40.55
2016-11-18T04:30:17.537Z,40.74
2016-11-18T04:31:26.551Z,40.26
2016-11-18T04:32:35.853Z,40.26
2016-11-18T04:33:44.881Z,40.74
2016-11-18T04:34:54.037Z,40.36
2016-11-18T04:36:02.725Z,40.36
2016-11-18T04:37:11.780Z,40.64
2016-11-18T04:38:20.863Z,40.36
2016-11-18T04:39:30.499Z,40.36
2016-11-18T04:40:39.534Z,40.64
2016-11-18T04:41:48.893Z,40.16
2016-11-18T04:42:58.255Z,40.36
2016-11-18T04:44:07.281Z,40.64
2016-11-18T04:45:16.627Z,40.64
2016-11-18T04:46:25.316Z,40.16
2016-11-18T04:47:34.059Z,40.74
2016-11-18T04:48:43.099Z,40.74
2016-11-18T04:49:52.142Z,40.16
2016-11-18T04:51:01.769Z,40.45
2016-11-18T04:52:10.784Z,40.36
2016-11-18T04:53:19.520Z,40.74
2016-11-18T04:54:28.278Z,40.16
2016-11-18T04:55:37.295Z,40.36
2016-11-18T04:56:46.314Z,40.64
2016-11-18T04:57:55.633Z,40.26
2016-11-18T04:59:04.648Z,40.64
2016-11-18T05:00:13.639Z,40.16
2016-11-18T05:01:22.984Z,40.26
2016-11-18T05:02:31.669Z,40.16
2016-11-18T05:03:41.353Z,40.74
2016-11-18T05:04:50.649Z,40.64
2016-11-18T05:05:59.666Z,40.64
2016-11-18T05:07:08.998Z,40.64
2016-11-18T05:08:18.304Z,40.36
2016-11-18T05:09:27.028Z,40.36
2016-11-18T05:10:36.373Z,40.74
2016-11-18T05:11:45.739Z,40.74
2016-11-18T05:12:54.754Z,40.74
2016-11-18T05:14:04.078Z,40.16
2016-11-18T05:15:12.817Z,40.26
2016-11-18T05:16:22.428Z,40.26
2016-11-18T05:17:31.128Z,40.64
2016-11-18T05:18:39.842Z,40.16
2016-11-18T05:19:49.580Z,40.64
2016-11-18T05:20:58.931Z,40.16
2016-11-18T05:22:07.656Z,40.64
2016-11-18T05:23:16.662Z,40.64
2016-11-18T05:24:25.703Z,40.26
2016-11-18T05:25:34.690Z,40.16
2016-11-18T05:26:43.395Z,40.64
2016-11-18T05:27:52.392Z,40.64
2016-11-18T05:29:02.034Z,40.64
2016-11-18T05:30:11.388Z,40.64
2016-11-18T05:31:20.399Z,40.36
2016-11-18T05:32:29.108Z,40.26
2016-11-18T05:33:38.432Z,40.64
2016-11-18T05:34:47.437Z,40.16
2016-11-18T05:35:56.441Z,40.16
2016-11-18T05:37:05.767Z,40.36
2016-11-18T05:38:14.759Z,40.26
2016-11-18T05:39:24.377Z,40.26
2016-11-18T05:40:33.381Z,40.55
2016-11-18T05:41:42.682Z,39.78
2016-11-18T05:42:51.992Z,39.97
2016-11-18T05:44:01.000Z,39.78
2016-11-18T05:45:10.000Z,39.49
2016-11-18T05:46:19.020Z,39.51
2016-11-18T05:47:27.746Z,39.41
2016-11-18T05:48:36.744Z,39.61
2016-11-18T05:49:45.481Z,38.93
2016-11-18T05:50:54.211Z,39.12
2016-11-18T05:52:02.902Z,39.41
2016-11-18T05:53:11.916Z,39.22
2016-11-18T05:54:20.934Z,38.93
2016-11-18T05:55:30.250Z,38.64
2016-11-18T05:56:38.972Z,38.56
2016-11-18T05:57:47.971Z,38.56
2016-11-18T06:01:29.390Z,38.28
2016-11-18T06:02:38.414Z,38.28
2016-11-18T06:03:47.106Z,38.37
2016-11-18T06:07:22.316Z,38.28
2016-11-18T06:08:31.335Z,37.81
2016-11-18T06:09:40.671Z,37.91
2016-11-18T06:10:49.674Z,37.71
2016-11-18T06:11:58.997Z,37.71
2016-11-18T06:13:07.689Z,37.91
2016-11-18T06:14:16.733Z,37.62
2016-11-18T06:15:26.386Z,37.81
2016-11-18T06:16:35.683Z,37.81
2016-11-18T06:17:44.679Z,37.91
2016-11-18T06:18:53.724Z,37.91
2016-11-18T06:20:02.432Z,37.62
2016-11-18T06:21:11.139Z,37.71
2016-11-18T06:22:20.199Z,37.71
2016-11-18T06:23:29.504Z,37.52
2016-11-18T06:24:38.813Z,37.81
2016-11-18T06:25:47.516Z,37.81
2016-11-18T06:26:56.231Z,37.63
2016-11-18T06:28:04.929Z,37.63
2016-11-18T06:29:14.257Z,37.63
2016-11-18T06:30:23.883Z,37.54
2016-11-18T06:31:33.540Z,37.25
2016-11-18T06:32:42.554Z,37.25
2016-11-18T06:33:51.295Z,37.25
2016-11-18T06:35:00.606Z,37.15
2016-11-18T06:36:09.390Z,36.96
2016-11-18T06:37:18.723Z,37.15
2016-11-18T06:38:27.747Z,37.35
2016-11-18T06:39:36.430Z,36.96
2016-11-18T06:40:45.449Z,36.88
2016-11-18T06:41:54.485Z,36.96
2016-11-18T06:43:03.570Z,36.79
2016-11-18T06:44:12.260Z,37.17
2016-11-18T06:45:21.003Z,36.88
2016-11-18T06:46:30.312Z,37.08
2016-11-18T06:47:39.083Z,36.69
2016-11-18T06:48:48.379Z,36.88
2016-11-18T06:49:57.700Z,36.79
2016-11-18T06:51:06.396Z,36.69
2016-11-18T06:52:15.421Z,36.4
2016-11-18T06:53:24.740Z,36.03
2016-11-18T06:54:33.791Z,36.42
2016-11-18T06:55:42.835Z,36.52
2016-11-18T06:56:51.833Z,36.32
2016-11-18T06:58:01.147Z,36.52
2016-11-18T06:59:10.453Z,36.42
2016-11-18T07:00:19.457Z,36.22
2016-11-18T07:01:28.458Z,36.52
2016-11-18T07:02:37.774Z,36.52
2016-11-18T07:03:46.462Z,36.52
2016-11-18T07:04:55.164Z,36.61
2016-11-18T07:06:04.167Z,36.71
2016-11-18T07:07:13.161Z,36.71
2016-11-18T07:08:22.778Z,36.9
2016-11-18T07:09:31.472Z,36.8
2016-11-18T07:10:40.170Z,36.61
2016-11-18T07:11:49.161Z,36.9
2016-11-18T07:12:58.478Z,37.1
2016-11-18T07:14:07.200Z,37.1
2016-11-18T07:15:15.905Z,37.1
2016-11-18T07:16:24.590Z,37
2016-11-18T07:17:33.640Z,37.1
2016-11-18T07:18:42.338Z,37.37
2016-11-18T07:19:51.103Z,37.1
2016-11-18T07:21:00.389Z,36.88
2016-11-18T07:22:09.121Z,37.29
2016-11-18T07:23:18.153Z,37.27
2016-11-18T07:24:27.174Z,37.37
2016-11-18T07:25:35.900Z,37.27
2016-11-18T07:26:44.905Z,37.37
2016-11-18T07:27:53.612Z,37.56
2016-11-18T07:29:02.921Z,37.65
2016-11-18T07:30:11.701Z,37.65
2016-11-18T07:31:21.041Z,37.75
2016-11-18T07:32:30.125Z,37.95
2016-11-18T07:33:39.746Z,37.75
2016-11-18T07:34:48.751Z,37.75
2016-11-18T07:35:57.531Z,37.65
2016-11-18T07:37:06.267Z,37.85
2016-11-18T07:38:15.281Z,37.65
2016-11-18T07:39:23.986Z,37.65
2016-11-18T07:40:33.024Z,37.95
2016-11-18T07:41:42.355Z,37.75
2016-11-18T07:42:51.359Z,38.04
2016-11-18T07:44:00.385Z,38.04
2016-11-18T07:45:09.412Z,38.02
2016-11-18T07:46:18.421Z,38.12
2016-11-18T07:47:27.740Z,38.31
2016-11-18T07:48:36.775Z,38.41
2016-11-18T07:49:45.483Z,38.51
2016-11-18T07:50:54.515Z,38.31
2016-11-18T07:52:03.576Z,38.31
2016-11-18T07:53:12.270Z,38.31
2016-11-18T07:54:21.302Z,38.31
2016-11-18T07:55:30.319Z,38.31
2016-11-18T07:56:39.039Z,38.21
2016-11-18T07:57:48.082Z,38.51
2016-11-18T07:58:57.096Z,38.12
2016-11-18T08:00:07.073Z,38.6
2016-11-18T08:01:16.129Z,38.6
2016-11-18T08:02:25.134Z,38.7
2016-11-18T08:03:34.160Z,38.7
2016-11-18T08:04:42.900Z,38.6
2016-11-18T08:05:52.517Z,38.6
2016-11-18T08:07:01.570Z,38.6
2016-11-18T08:08:10.593Z,38.79
2016-11-18T08:09:19.587Z,38.7
2016-11-18T08:10:28.335Z,38.79
2016-11-18T08:11:37.087Z,38.7
2016-11-18T08:12:45.815Z,38.99
2016-11-18T08:13:55.429Z,38.99
2016-11-18T08:15:04.153Z,38.79
2016-11-18T08:16:12.851Z,38.99
2016-11-18T08:17:22.167Z,39.28
2016-11-18T08:18:31.234Z,39.28
2016-11-18T08:19:40.572Z,39.09
2016-11-18T08:20:49.940Z,39.36
2016-11-18T08:21:58.937Z,39.37
2016-11-18T08:23:07.938Z,39.36
2016-11-18T08:24:17.297Z,39.26
2016-11-18T08:25:26.914Z,39.45
2016-11-18T08:26:35.963Z,39.36
2016-11-18T08:27:44.662Z,39.36
2016-11-18T08:28:53.668Z,39.36
2016-11-18T08:30:02.736Z,39.36
2016-11-18T08:31:11.746Z,39.36
2016-11-18T08:32:20.488Z,39.45
2016-11-18T08:33:29.515Z,39.36
2016-11-18T08:34:38.507Z,39.36
2016-11-18T08:35:47.844Z,39.45
2016-11-18T08:36:56.865Z,39.36
2016-11-18T08:38:05.595Z,39.36
2016-11-18T08:39:14.938Z,39.26
2016-11-18T08:40:23.671Z,39.36
2016-11-18T08:41:33.011Z,39.06
2016-11-18T08:42:42.019Z,39.06
2016-11-18T08:43:51.639Z,39.06
2016-11-18T08:45:01.349Z,39.06
2016-11-18T08:46:10.958Z,39.06
2016-11-18T08:47:20.880Z,39.26
2016-11-18T08:48:29.579Z,39.06
2016-11-18T08:49:39.190Z,38.87
2016-11-18T08:50:48.513Z,38.97
2016-11-18T08:51:57.835Z,38.97
2016-11-18T08:53:06.855Z,39.06
2016-11-18T08:54:16.792Z,38.87
2016-11-18T08:55:25.490Z,38.97
2016-11-18T08:56:34.801Z,38.97
2016-11-18T08:57:43.498Z,38.87
2016-11-18T08:58:52.498Z,38.87
2016-11-18T09:00:01.355Z,38.87
2016-11-18T09:01:10.057Z,38.87
2016-11-18T09:02:18.753Z,38.87
2016-11-18T09:03:27.447Z,38.87
2016-11-18T09:04:36.454Z,39.06
2016-11-18T09:05:45.458Z,38.87
2016-11-18T09:06:54.497Z,38.87
2016-11-18T09:08:03.809Z,39.16
2016-11-18T09:09:12.847Z,39.16
2016-11-18T09:10:21.575Z,39.06
2016-11-18T09:11:30.583Z,39.06
2016-11-18T09:12:39.609Z,39.06
2016-11-18T09:13:48.930Z,38.87
2016-11-18T09:14:58.060Z,39.16
2016-11-18T09:16:07.128Z,39.06
2016-11-18T09:17:16.517Z,38.87
2016-11-18T09:18:25.828Z,38.87
2016-11-18T09:19:34.839Z,39.26
2016-11-18T09:20:43.879Z,39.16
2016-11-18T09:21:52.582Z,38.97
2016-11-18T09:23:02.206Z,39.26
2016-11-18T09:24:10.921Z,39.26
2016-11-18T09:25:20.235Z,39.16
2016-11-18T09:26:28.965Z,39.16
2016-11-18T09:27:37.672Z,39.16
2016-11-18T09:28:46.686Z,39.26
2016-11-18T09:29:55.383Z,38.97
2016-11-18T09:31:04.116Z,38.87
2016-11-18T09:32:13.114Z,38.97
2016-11-18T09:33:22.141Z,38.97
2016-11-18T09:34:31.461Z,38.87
2016-11-18T09:35:40.173Z,38.97
2016-11-18T09:36:49.189Z,38.97
2016-11-18T09:37:58.523Z,39.36
2016-11-18T09:39:07.823Z,38.87
2016-11-18T09:40:17.153Z,39.06
2016-11-18T09:41:26.782Z,38.87
2016-11-18T09:42:36.110Z,38.97
2016-11-18T09:43:45.149Z,38.97
2016-11-18T09:44:54.164Z,39.26
2016-11-18T09:46:03.802Z,39.54
2016-11-18T09:47:12.795Z,39.45
2016-11-18T09:48:21.811Z,39.45
2016-11-18T09:49:30.509Z,39.54
2016-11-18T09:50:39.536Z,39.54
2016-11-18T09:51:48.855Z,39.45
2016-11-18T09:52:58.463Z,39.26
2016-11-18T09:54:07.468Z,39.16
2016-11-18T09:55:16.176Z,39.36
2016-11-18T09:56:24.892Z,39.54
2016-11-18T09:57:33.888Z,39.54
2016-11-18T09:58:42.904Z,39.24
2016-11-18T09:59:52.239Z,39.26
2016-11-18T10:01:01.240Z,39.36
2016-11-18T10:02:10.870Z,39.26
2016-11-18T10:03:20.179Z,39.53
2016-11-18T10:04:29.539Z,39.34
2016-11-18T10:05:38.231Z,39.34
2016-11-18T10:06:47.863Z,39.14
2016-11-18T10:07:56.917Z,39.34
2016-11-18T10:09:05.932Z,39.43
2016-11-18T10:10:14.652Z,39.14
2016-11-18T10:11:23.686Z,39.26
2016-11-18T10:12:32.984Z,39.53
2016-11-18T10:13:42.013Z,39.24
2016-11-18T10:14:51.313Z,39.14
2016-11-18T10:16:00.324Z,39.43
2016-11-18T10:17:09.673Z,39.45
2016-11-18T10:18:18.996Z,39.34
2016-11-18T10:19:27.732Z,39.43
2016-11-18T10:20:37.081Z,39.62
2016-11-18T10:21:46.135Z,39.34
2016-11-18T10:22:54.839Z,39.43
2016-11-18T10:24:03.598Z,39.53
2016-11-18T10:25:12.671Z,39.53
2016-11-18T10:26:22.005Z,39.43
2016-11-18T10:27:31.323Z,39.34
2016-11-18T10:28:40.060Z,39.14
2016-11-18T10:29:49.692Z,39.14
2016-11-18T10:30:58.703Z,39.24
2016-11-18T10:32:07.397Z,39.53
2016-11-18T10:33:16.107Z,39.24
2016-11-18T10:34:25.739Z,39.24
2016-11-18T10:35:34.759Z,39.53
2016-11-18T10:36:43.792Z,39.16
2016-11-18T10:37:53.100Z,39.24
2016-11-18T10:39:02.753Z,39.34
2016-11-18T10:40:12.374Z,39.45
2016-11-18T10:41:21.098Z,39.43
2016-11-18T10:42:29.809Z,39.43
2016-11-18T10:43:38.823Z,39.53
2016-11-18T10:44:48.171Z,39.43
2016-11-18T10:45:57.787Z,39.36
2016-11-18T10:47:06.508Z,39.54
2016-11-18T10:48:15.851Z,39.04
2016-11-18T10:49:24.871Z,38.97
2016-11-18T10:50:34.201Z,39.04
2016-11-18T10:51:43.536Z,38.87
2016-11-18T10:52:52.855Z,39.16
2016-11-18T10:54:02.166Z,39.26
2016-11-18T10:55:10.869Z,38.95
2016-11-18T10:56:20.193Z,39.24
2016-11-18T10:57:29.217Z,39.53
2016-11-18T10:58:38.229Z,39.53
2016-11-18T10:59:47.251Z,39.53
2016-11-18T11:00:55.974Z,39.43
2016-11-18T11:02:05.303Z,39.43
2016-11-18T11:03:14.333Z,39.53
2016-11-18T11:04:23.327Z,39.43
2016-11-18T11:05:32.638Z,39.62
2016-11-18T11:06:41.367Z,39.62
2016-11-18T11:07:50.059Z,39.43
2016-11-18T11:08:59.069Z,39.53
2016-11-18T11:10:08.380Z,39.43
2016-11-18T11:11:17.405Z,39.43
2016-11-18T11:12:26.396Z,39.14
2016-11-18T11:13:35.425Z,39.43
2016-11-18T11:14:44.120Z,39.43
2016-11-18T11:15:53.421Z,39.34
2016-11-18T11:17:02.109Z,39.53
2016-11-18T11:18:11.124Z,39.53
2016-11-18T11:19:20.748Z,39.34
2016-11-18T11:20:30.091Z,39.34
2016-11-18T11:21:39.401Z,39.34
2016-11-18T11:22:48.712Z,39.43
2016-11-18T11:23:57.410Z,39.24
2016-11-18T11:25:06.444Z,39.14
2016-11-18T11:26:15.451Z,39.34
2016-11-18T11:27:24.492Z,39.14
2016-11-18T11:28:33.799Z,39.24
2016-11-18T11:29:42.806Z,39.34
2016-11-18T11:30:51.502Z,39.14
2016-11-18T11:32:00.837Z,39.43
2016-11-18T11:33:10.193Z,39.53
2016-11-18T11:34:18.934Z,39.53
2016-11-18T11:35:27.939Z,39.62
2016-11-18T11:36:37.022Z,39.53
2016-11-18T11:37:46.052Z,39.53
2016-11-18T11:38:54.778Z,39.62
2016-11-18T11:40:03.489Z,39.72
2016-11-18T11:41:12.496Z,39.62
2016-11-18T11:42:22.105Z,39.62
2016-11-18T11:43:31.117Z,39.62
2016-11-18T11:44:39.811Z,39.53
2016-11-18T11:45:49.419Z,39.53
2016-11-18T11:46:59.031Z,39.62
2016-11-18T11:48:07.718Z,39.72
2016-11-18T11:49:16.417Z,39.72
2016-11-18T11:50:26.029Z,39.62
2016-11-18T11:51:35.069Z,39.53
2016-11-18T11:52:44.122Z,39.62
2016-11-18T11:53:53.435Z,39.72
2016-11-18T11:55:02.435Z,39.72
2016-11-18T11:56:11.163Z,39.72
2016-11-18T11:57:20.206Z,39.72
2016-11-18T11:58:29.204Z,39.72
2016-11-18T11:59:38.214Z,39.72
2016-11-18T12:00:47.533Z,39.72
2016-11-18T12:01:56.550Z,39.72
2016-11-18T12:03:05.553Z,39.53
2016-11-18T12:04:14.860Z,39.53
2016-11-18T12:05:23.858Z,39.53
2016-11-18T12:06:32.546Z,39.53
2016-11-18T12:07:41.850Z,39.53
2016-11-18T12:08:51.158Z,39.62
2016-11-18T12:09:59.858Z,39.61
2016-11-18T12:11:08.576Z,39.62
2016-11-18T12:12:17.578Z,39.53
2016-11-18T12:13:26.567Z,39.53
2016-11-18T12:14:35.575Z,39.24
2016-11-18T12:15:44.927Z,39.14
2016-11-18T12:16:53.957Z,39.43
2016-11-18T12:18:02.982Z,39.14
2016-11-18T12:19:12.641Z,39.53
2016-11-18T12:20:21.331Z,39.53
2016-11-18T12:21:30.666Z,39.34
2016-11-18T12:22:39.398Z,39.53
2016-11-18T12:23:48.405Z,39.34
2016-11-18T12:24:57.141Z,39.43
2016-11-18T12:26:05.872Z,39.24
2016-11-18T12:27:15.219Z,39.24
2016-11-18T12:28:24.253Z,39.14
2016-11-18T12:29:32.977Z,39.14
2016-11-18T12:30:42.303Z,39.51
2016-11-18T12:31:51.602Z,39.43
2016-11-18T12:33:00.693Z,39.24
2016-11-18T12:34:10.039Z,39.14
2016-11-18T12:35:18.732Z,39.53
2016-11-18T12:36:28.399Z,39.53
2016-11-18T12:37:37.689Z,39.43
2016-11-18T12:38:46.385Z,39.24
2016-11-18T12:39:55.407Z,39.24
2016-11-18T12:41:04.100Z,39.14
2016-11-18T12:42:13.105Z,39.24
2016-11-18T12:43:21.813Z,39.22
2016-11-18T12:44:30.832Z,39.24
2016-11-18T12:45:40.150Z,39.24
2016-11-18T12:46:48.851Z,39.14
2016-11-18T12:47:57.543Z,39.24
2016-11-18T12:49:06.542Z,39.22
2016-11-18T12:50:15.551Z,39.43
2016-11-18T12:51:24.595Z,39.24
2016-11-18T12:52:33.589Z,39.53
2016-11-18T12:53:43.187Z,39.24
2016-11-18T12:54:52.490Z,39.24
2016-11-18T12:56:01.503Z,39.24
2016-11-18T12:57:10.496Z,39.24
2016-11-18T12:58:20.111Z,39.24
2016-11-18T12:59:29.404Z,39.24
2016-11-18T13:00:39.012Z,39.12
2016-11-18T13:01:47.717Z,39.53
2016-11-18T13:02:56.436Z,39.22
2016-11-18T13:04:05.438Z,39.43
2016-11-18T13:05:14.746Z,39.31
2016-11-18T13:06:23.749Z,39.41
2016-11-18T13:07:32.777Z,39.53
2016-11-18T13:08:42.129Z,39.14
2016-11-18T13:09:51.434Z,39.41
2016-11-18T13:11:00.130Z,39.43
2016-11-18T13:12:09.434Z,39.31
2016-11-18T13:13:18.440Z,39.41
2016-11-18T13:14:27.756Z,39.31
2016-11-18T13:15:36.453Z,39.12
2016-11-18T13:16:45.454Z,39.41
2016-11-18T13:17:54.474Z,39.12
2016-11-18T13:19:03.483Z,39.22
2016-11-18T13:20:12.481Z,39.34
2016-11-18T13:21:21.238Z,39.31
2016-11-18T13:22:30.555Z,39.41
2016-11-18T13:23:39.240Z,39.43
2016-11-18T13:24:48.260Z,39.31
2016-11-18T13:25:56.957Z,39.22
2016-11-18T13:27:06.003Z,39.41
2016-11-18T13:28:15.034Z,39.12
2016-11-18T13:29:24.033Z,39.12
2016-11-18T13:30:33.035Z,39.12
2016-11-18T13:31:42.085Z,39.51
2016-11-18T13:32:51.091Z,39.31
2016-11-18T13:34:00.406Z,39.22
2016-11-18T13:35:10.031Z,39.41
2016-11-18T13:36:19.354Z,39.51
2016-11-18T13:37:28.066Z,39.51
2016-11-18T13:38:36.756Z,39.51
2016-11-18T13:39:45.788Z,39.61
2016-11-18T13:40:54.477Z,39.41
2016-11-18T13:42:04.121Z,39.12
2016-11-18T13:43:12.826Z,39.22
2016-11-18T13:44:21.533Z,39.22
2016-11-18T13:45:30.545Z,39.22
2016-11-18T13:46:39.843Z,39.12
2016-11-18T13:47:49.172Z,39.41
2016-11-18T13:48:57.921Z,39.41
2016-11-18T13:50:06.632Z,39.22
2016-11-18T13:51:15.657Z,39.31
2016-11-18T13:52:24.341Z,39.51
2016-11-18T13:53:33.027Z,39.31
2016-11-18T13:54:42.356Z,39.22
2016-11-18T13:55:51.380Z,39.22
2016-11-18T13:57:00.706Z,39.22
2016-11-18T13:58:09.718Z,39.22
2016-11-18T13:59:18.426Z,39.22
2016-11-18T14:00:27.727Z,39.41
2016-11-18T14:01:36.789Z,39.22
2016-11-18T14:02:45.810Z,39.31
2016-11-18T14:03:54.500Z,39.51
2016-11-18T14:05:03.818Z,39.22
2016-11-18T14:06:12.518Z,39.22
2016-11-18T14:07:21.827Z,39.22
2016-11-18T14:08:31.136Z,39.22
2016-11-18T14:09:40.742Z,39.22
2016-11-18T14:10:50.039Z,39.22
2016-11-18T14:11:59.364Z,39.51
2016-11-18T14:13:08.679Z,39.61
2016-11-18T14:14:18.002Z,39.22
2016-11-18T14:15:27.923Z,39.22
2016-11-18T14:16:36.613Z,39.51
2016-11-18T14:17:46.579Z,39.22
2016-11-18T14:18:55.571Z,39.22
2016-11-18T14:20:04.877Z,39.22
2016-11-18T14:21:13.893Z,39.22
2016-11-18T14:22:22.597Z,39.31
2016-11-18T14:23:31.303Z,39.51
2016-11-18T14:24:40.331Z,39.41
2016-11-18T14:25:49.335Z,39.51
2016-11-18T14:26:58.039Z,39.31
2016-11-18T14:28:06.766Z,39.51
2016-11-18T14:29:15.770Z,39.31
2016-11-18T14:30:24.767Z,39.41
2016-11-18T14:31:33.772Z,39.41
2016-11-18T14:32:43.422Z,39.41
2016-11-18T14:33:52.727Z,39.22
2016-11-18T14:35:01.721Z,39.41
2016-11-18T14:36:11.944Z,39.22
2016-11-18T14:37:20.944Z,39.51
2016-11-18T14:38:30.566Z,39.22
2016-11-18T14:39:39.264Z,39.22
2016-11-18T14:40:48.284Z,39.61
2016-11-18T14:41:57.314Z,39.51
2016-11-18T14:43:06.950Z,39.51
2016-11-18T14:44:15.720Z,39.51
2016-11-18T14:45:24.722Z,39.51
2016-11-18T14:46:34.355Z,39.51
2016-11-18T14:47:43.402Z,39.22
2016-11-18T14:48:52.415Z,39.41
2016-11-18T14:50:02.114Z,39.22
2016-11-18T14:51:11.138Z,39.31
2016-11-18T14:52:20.464Z,39.41
2016-11-18T14:53:29.490Z,39.51
2016-11-18T14:54:38.515Z,39.61
2016-11-18T14:55:47.826Z,39.51